Time;durP1;ratioP1;P1;durP2;ratioP2;P2;SDS_P1;SDS_P2;PMS_P1;PMS_P2;Temp;Humidity;BMP_temperature;BMP_pressure;BME280_temperature;BME280_humidity;BME280_pressure;Samples;Min_cycle;Max_cycle;Signal;HPM_P1;HPM_P2
2023/08/28 00:00:59;;;;;;;20.83;16.88;;;;;;;12.10;100.00;101063.50;5034817;28;20491;-69
2023/08/28 00:03:24;;;;;;;20.48;16.13;;;;;;;12.07;100.00;101073.25;5017983;28;20026;-71
2023/08/28 00:05:49;;;;;;;21.40;16.65;;;;;;;12.05;100.00;101077.50;5035002;28;20033;-71
2023/08/28 00:08:14;;;;;;;21.23;16.13;;;;;;;12.02;100.00;101078.94;5034734;28;20026;-71
2023/08/28 00:10:40;;;;;;;21.63;16.48;;;;;;;12.03;100.00;101077.81;5034853;28;20025;-71
2023/08/28 00:13:05;;;;;;;20.70;16.40;;;;;;;11.95;100.00;101076.53;5034832;28;20035;-72
2023/08/28 00:15:31;;;;;;;20.15;15.82;;;;;;;11.94;100.00;101071.31;5034947;28;20389;-71
2023/08/28 00:17:56;;;;;;;21.52;16.17;;;;;;;11.96;100.00;101060.72;5034752;28;20045;-72
2023/08/28 00:20:22;;;;;;;20.58;16.58;;;;;;;11.97;100.00;101073.44;5031804;28;20037;-71
2023/08/28 00:22:47;;;;;;;20.33;16.10;;;;;;;11.95;100.00;101075.75;5024438;28;20022;-71
2023/08/28 00:25:12;;;;;;;20.35;16.05;;;;;;;11.92;100.00;101073.56;5015138;28;20026;-71
2023/08/28 00:27:38;;;;;;;20.63;16.23;;;;;;;11.88;100.00;101069.75;5015178;28;20480;-72
2023/08/28 00:30:04;;;;;;;20.20;15.70;;;;;;;11.85;100.00;101062.91;5014922;28;20034;-73
2023/08/28 00:32:29;;;;;;;22.35;16.40;;;;;;;11.80;100.00;101068.56;5015035;28;20133;-70
2023/08/28 00:34:54;;;;;;;21.27;16.13;;;;;;;11.81;100.00;101068.25;5015039;28;20037;-70
2023/08/28 00:37:20;;;;;;;20.35;16.25;;;;;;;11.80;100.00;101065.78;5014737;28;20045;-70
2023/08/28 00:39:45;;;;;;;21.48;15.75;;;;;;;11.82;100.00;101052.41;5014744;28;20393;-71
2023/08/28 00:42:10;;;;;;;20.80;15.80;;;;;;;11.84;100.00;101058.47;5014652;28;20049;-73
2023/08/28 00:44:36;;;;;;;20.45;16.27;;;;;;;11.84;100.00;101056.53;5014602;28;20053;-71
2023/08/28 00:47:02;;;;;;;21.92;16.65;;;;;;;11.81;100.00;101057.16;5014567;28;20041;-74
2023/08/28 00:49:29;;;;;;;20.58;16.08;;;;;;;11.83;100.00;101060.44;5014716;28;20080;-72
2023/08/28 00:51:55;;;;;;;21.60;16.55;;;;;;;11.81;100.00;101056.31;5020361;28;20469;-71
2023/08/28 00:54:20;;;;;;;22.88;15.73;;;;;;;11.79;100.00;101056.63;5016502;28;20033;-72
2023/08/28 00:56:47;;;;;;;20.58;15.77;;;;;;;11.77;100.00;101049.75;5015456;28;20038;-71
2023/08/28 00:59:15;;;;;;;20.70;15.32;;;;;;;11.79;100.00;101050.28;5020522;28;20030;-72
2023/08/28 01:01:40;;;;;;;21.60;15.35;;;;;;;11.77;100.00;101047.81;5013520;28;20041;-72
2023/08/28 01:04:06;;;;;;;20.23;15.82;;;;;;;11.77;100.00;101047.81;5013846;28;20045;-73
2023/08/28 01:07:16;;;;;;;21.30;16.63;;;;;;;11.77;100.00;101045.03;5014303;28;20049;-72
2023/08/28 01:10:17;;;;;;;21.70;17.10;;;;;;;11.72;100.00;101045.16;5013742;28;20037;-70
2023/08/28 01:12:48;;;;;;;21.10;16.27;;;;;;;11.65;100.00;101042.78;5012577;28;20046;-71
2023/08/28 01:15:16;;;;;;;21.40;17.20;;;;;;;11.61;100.00;101043.72;5013941;28;20026;-71
2023/08/28 01:17:44;;;;;;;21.25;16.95;;;;;;;11.57;100.00;101043.50;5014024;28;20041;-71
2023/08/28 01:20:12;;;;;;;21.50;16.33;;;;;;;11.54;100.00;101035.81;5013530;28;20026;-71
2023/08/28 01:22:40;;;;;;;20.17;16.38;;;;;;;11.50;100.00;101046.69;5025503;28;20040;-70
2023/08/28 01:25:10;;;;;;;21.30;16.48;;;;;;;11.47;100.00;101046.47;5033335;28;20029;-71
2023/08/28 01:27:37;;;;;;;20.85;16.35;;;;;;;11.44;100.00;101045.16;5032209;28;20040;-71
2023/08/28 01:30:12;;;;;;;21.55;16.13;;;;;;;11.45;100.00;101041.25;5013372;28;20708;-70
2023/08/28 01:32:39;;;;;;;21.17;16.63;;;;;;;11.45;100.00;101037.66;5013586;28;20030;-71
2023/08/28 01:35:20;;;;;;;21.35;16.90;;;;;;;11.45;100.00;101030.19;5013404;28;20038;-71
2023/08/28 01:38:05;;;;;;;22.40;16.60;;;;;;;11.51;100.00;101031.72;5013208;28;20108;-70
2023/08/28 01:40:48;;;;;;;22.13;16.40;;;;;;;11.53;100.00;101023.09;5013206;28;20034;-71
2023/08/28 01:43:20;;;;;;;21.73;17.27;;;;;;;11.50;100.00;101012.63;5013137;28;20136;-71
2023/08/28 01:45:46;;;;;;;23.55;16.83;;;;;;;11.56;100.00;101022.47;5010796;28;20040;-71
2023/08/28 01:48:12;;;;;;;20.90;16.20;;;;;;;11.59;100.00;101016.31;5012715;28;20029;-72
2023/08/28 01:50:37;;;;;;;21.58;16.88;;;;;;;11.55;100.00;101016.13;5012922;28;20103;-71
2023/08/28 01:53:02;;;;;;;23.33;17.10;;;;;;;11.56;100.00;101011.38;5028878;28;20478;-69
2023/08/28 01:56:06;;;;;;;22.40;16.58;;;;;;;11.55;100.00;101018.91;5032444;28;20053;-70
2023/08/28 01:58:33;;;;;;;20.95;17.05;;;;;;;11.49;100.00;101025.66;5030936;28;20416;-70
2023/08/28 02:00:59;;;;;;;22.05;17.13;;;;;;;11.45;100.00;101023.81;5027545;28;20104;-70
2023/08/28 02:03:24;;;;;;;22.13;16.63;;;;;;;11.40;100.00;101027.50;5022088;28;20116;-71
2023/08/28 02:05:50;;;;;;;21.63;17.23;;;;;;;11.37;100.00;101031.72;5012578;28;20033;-70
2023/08/28 02:08:15;;;;;;;22.38;17.17;;;;;;;11.36;100.00;101027.28;5013659;28;20157;-70
2023/08/28 02:10:40;;;;;;;22.38;17.33;;;;;;;11.36;100.00;101021.75;5013017;28;20458;-70
2023/08/28 02:13:06;;;;;;;22.02;17.17;;;;;;;11.37;100.00;101015.09;5012587;28;20066;-70
2023/08/28 02:15:31;;;;;;;22.45;17.20;;;;;;;11.32;100.00;101009.66;5030872;28;20463;-71
2023/08/28 02:17:56;;;;;;;21.40;16.80;;;;;;;11.30;100.00;100997.22;5032216;28;20060;-70
2023/08/28 02:20:22;;;;;;;23.13;18.05;;;;;;;11.28;100.00;100994.78;5032146;28;20112;-71
2023/08/28 02:22:47;;;;;;;23.05;17.45;;;;;;;11.28;100.00;101005.84;5032284;28;20100;-71
2023/08/28 02:25:13;;;;;;;23.17;17.90;;;;;;;11.22;100.00;101005.13;5032257;28;20465;-71
2023/08/28 02:27:38;;;;;;;23.10;18.02;;;;;;;11.18;100.00;101004.13;5032266;28;20527;-72
2023/08/28 02:30:04;;;;;;;22.80;17.25;;;;;;;11.11;100.00;101005.63;5032060;28;20025;-71
2023/08/28 02:32:29;;;;;;;21.98;17.23;;;;;;;11.11;100.00;101014.75;5030587;28;20022;-71
2023/08/28 02:34:54;;;;;;;23.23;17.15;;;;;;;11.07;100.00;101019.28;5030765;28;20033;-72
2023/08/28 02:37:20;;;;;;;22.45;17.08;;;;;;;11.04;100.00;101019.88;5031533;28;20040;-72
2023/08/28 02:39:45;;;;;;;22.77;18.08;;;;;;;10.99;100.00;101023.56;5030447;28;20381;-71
2023/08/28 02:42:10;;;;;;;21.80;17.63;;;;;;;10.93;100.00;101014.53;5027170;28;20079;-72
2023/08/28 02:44:36;;;;;;;22.83;18.48;;;;;;;10.93;100.00;101011.75;5014421;28;20037;-72
2023/08/28 02:47:01;;;;;;;23.23;18.48;;;;;;;10.91;100.00;101004.88;5012215;28;20029;-71
2023/08/28 02:49:27;;;;;;;23.40;18.58;;;;;;;10.90;100.00;101006.00;5012040;28;20037;-71
2023/08/28 02:51:52;;;;;;;23.05;18.77;;;;;;;10.88;100.00;101013.78;5011790;28;20103;-71
2023/08/28 02:54:17;;;;;;;23.38;18.45;;;;;;;10.87;100.00;101014.91;5016814;28;20107;-72
2023/08/28 02:56:43;;;;;;;22.95;19.00;;;;;;;10.84;100.00;101027.41;5031813;28;20104;-72
2023/08/28 02:59:08;;;;;;;23.63;18.95;;;;;;;10.81;100.00;101032.75;5032400;28;20491;-72
2023/08/28 03:01:37;;;;;;;23.17;19.25;;;;;;;10.76;100.00;101028.13;5022863;28;20033;-72
2023/08/28 03:04:05;;;;;;;23.08;19.38;;;;;;;10.74;100.00;101027.59;5031651;28;20155;-73
2023/08/28 03:06:34;;;;;;;23.70;19.05;;;;;;;10.72;100.00;101029.88;5031611;28;20029;-72
2023/08/28 03:09:00;;;;;;;25.60;20.00;;;;;;;10.74;100.00;101031.19;5029893;28;20029;-71
2023/08/28 03:11:25;;;;;;;24.95;19.35;;;;;;;10.74;100.00;101028.44;5016313;28;20037;-71
2023/08/28 03:13:51;;;;;;;24.67;20.20;;;;;;;10.75;100.00;101040.31;5011661;28;20057;-71
2023/08/28 03:16:16;;;;;;;23.65;19.90;;;;;;;10.73;100.00;101037.00;5011982;28;20022;-73
2023/08/28 03:18:41;;;;;;;24.27;19.48;;;;;;;10.73;100.00;101034.25;5011807;28;20462;-72
2023/08/28 03:21:06;;;;;;;22.85;19.02;;;;;;;10.70;100.00;101024.59;5011752;28;20033;-72
2023/08/28 03:23:32;;;;;;;24.58;19.30;;;;;;;10.71;100.00;101034.56;5026082;28;20044;-70
2023/08/28 03:25:57;;;;;;;24.00;19.00;;;;;;;10.69;100.00;101027.69;5029970;28;20060;-71
2023/08/28 03:28:22;;;;;;;24.25;18.65;;;;;;;10.69;100.00;101036.00;5031563;28;20071;-71
2023/08/28 03:30:48;;;;;;;24.83;19.50;;;;;;;10.66;100.00;101037.44;5031529;28;20453;-72
2023/08/28 03:33:13;;;;;;;24.65;19.73;;;;;;;10.65;100.00;101046.00;5032007;28;20036;-72
2023/08/28 03:35:38;;;;;;;23.95;18.85;;;;;;;10.63;100.00;101045.50;5031407;28;20029;-71
2023/08/28 03:38:04;;;;;;;25.10;19.55;;;;;;;10.58;100.00;101047.22;5031308;28;20036;-71
2023/08/28 03:40:29;;;;;;;25.13;19.17;;;;;;;10.59;100.00;101054.41;5027158;28;20112;-72
2023/08/28 03:42:54;;;;;;;24.60;20.02;;;;;;;10.59;100.00;101057.16;5031405;28;20640;-72
2023/08/28 03:45:20;;;;;;;25.15;19.92;;;;;;;10.57;100.00;101064.13;5031357;28;20026;-71
2023/08/28 03:47:45;;;;;;;25.45;20.17;;;;;;;10.56;100.00;101068.03;5031313;28;20544;-71
2023/08/28 03:50:10;;;;;;;24.45;20.55;;;;;;;10.54;100.00;101057.22;5030998;28;20036;-71
2023/08/28 03:52:36;;;;;;;25.40;20.85;;;;;;;10.56;100.00;101062.50;5031062;28;20049;-72
2023/08/28 03:55:01;;;;;;;26.88;20.27;;;;;;;10.57;100.00;101064.13;5031410;28;20520;-72
2023/08/28 03:57:26;;;;;;;24.25;20.23;;;;;;;10.54;100.00;101065.53;5031394;28;20041;-71
2023/08/28 03:59:52;;;;;;;26.73;20.73;;;;;;;10.53;100.00;101071.38;5031224;28;20033;-72
2023/08/28 04:02:19;;;;;;;25.50;20.90;;;;;;;10.45;100.00;101065.41;5030046;28;20030;-73
2023/08/28 04:04:44;;;;;;;26.30;20.80;;;;;;;10.51;100.00;101077.22;5031507;28;20021;-77
2023/08/28 04:07:21;;;;;;;26.17;20.90;;;;;;;10.54;100.00;101079.38;5031163;28;20035;-73
2023/08/28 04:09:47;;;;;;;26.88;21.90;;;;;;;10.57;100.00;101076.00;5029941;28;20030;-73
2023/08/28 04:12:12;;;;;;;26.45;21.80;;;;;;;10.61;100.00;101084.53;5031220;28;20021;-73
2023/08/28 04:14:37;;;;;;;27.42;22.17;;;;;;;10.65;100.00;101090.28;5031198;28;20771;-73
2023/08/28 04:17:03;;;;;;;26.90;22.33;;;;;;;10.68;100.00;101098.78;5031077;28;20125;-72
2023/08/28 04:19:28;;;;;;;27.08;21.48;;;;;;;10.71;100.00;101092.66;5028059;28;20108;-72
2023/08/28 04:21:53;;;;;;;27.13;22.58;;;;;;;10.74;100.00;101092.06;5021601;28;20029;-72
2023/08/28 04:24:18;;;;;;;27.08;22.30;;;;;;;10.79;100.00;101093.09;5011185;28;20109;-73
2023/08/28 04:26:44;;;;;;;28.05;21.85;;;;;;;10.78;100.00;101092.28;5014237;28;20108;-71
2023/08/28 04:29:09;;;;;;;27.52;22.17;;;;;;;10.77;100.00;101088.69;5014952;28;20109;-72
2023/08/28 04:31:34;;;;;;;26.98;22.00;;;;;;;10.81;100.00;101097.22;5029590;28;20057;-70
2023/08/28 04:34:00;;;;;;;26.80;22.63;;;;;;;10.82;100.00;101095.28;5017502;28;20025;-72
2023/08/28 04:36:25;;;;;;;26.48;22.73;;;;;;;10.79;100.00;101091.16;5025576;28;20470;-72
2023/08/28 04:38:50;;;;;;;27.00;22.85;;;;;;;10.85;100.00;101097.44;5034264;28;20017;-71
2023/08/28 04:41:15;;;;;;;27.60;23.15;;;;;;;10.89;100.00;101104.84;5033669;28;20445;-72
2023/08/28 04:43:41;;;;;;;27.50;22.55;;;;;;;10.92;100.00;101097.88;5034140;28;20096;-73
2023/08/28 04:46:06;;;;;;;26.52;22.15;;;;;;;10.97;100.00;101097.78;5034393;28;20476;-74
2023/08/28 04:48:31;;;;;;;28.42;22.52;;;;;;;11.03;100.00;101098.50;5034290;28;20022;-74
2023/08/28 04:50:57;;;;;;;26.50;21.98;;;;;;;11.10;100.00;101090.63;5032733;28;20025;-74
2023/08/28 04:53:22;;;;;;;26.27;21.35;;;;;;;11.12;100.00;101076.50;5032448;28;20140;-73
2023/08/28 04:55:47;;;;;;;27.15;22.08;;;;;;;11.17;100.00;101080.00;5034150;28;20053;-74
2023/08/28 04:58:13;;;;;;;27.25;21.35;;;;;;;11.20;100.00;101073.03;5034022;28;20148;-74
2023/08/28 05:00:38;;;;;;;26.00;21.27;;;;;;;11.21;100.00;101066.38;5034058;28;20075;-71
2023/08/28 05:03:05;;;;;;;26.73;20.60;;;;;;;11.22;100.00;101068.00;5023362;28;20030;-72
2023/08/28 05:05:30;;;;;;;26.42;20.45;;;;;;;11.25;100.00;101072.94;5033971;28;20508;-70
2023/08/28 05:07:55;;;;;;;27.30;20.65;;;;;;;11.26;100.00;101071.81;5032412;28;20041;-72
2023/08/28 05:10:21;;;;;;;24.75;20.63;;;;;;;11.29;100.00;101065.66;5027585;28;20452;-70
2023/08/28 05:12:46;;;;;;;26.20;20.50;;;;;;;11.28;100.00;101065.97;5033963;28;20041;-71
2023/08/28 05:15:12;;;;;;;27.67;19.63;;;;;;;11.34;100.00;101067.50;5033563;28;20469;-71
2023/08/28 05:17:38;;;;;;;26.35;21.02;;;;;;;11.32;100.00;101059.53;5033682;28;20032;-71
2023/08/28 05:20:03;;;;;;;27.33;20.98;;;;;;;11.36;100.00;101068.03;5032400;28;20038;-71
2023/08/28 05:22:29;;;;;;;25.10;20.65;;;;;;;11.38;100.00;101065.78;5033733;28;20033;-71
2023/08/28 05:24:54;;;;;;;25.90;21.08;;;;;;;11.43;100.00;101064.88;5033429;28;20108;-71
2023/08/28 05:27:19;;;;;;;27.83;21.25;;;;;;;11.45;100.00;101060.66;5033493;28;20026;-72
2023/08/28 05:29:46;;;;;;;25.35;20.90;;;;;;;11.43;100.00;101056.56;5033365;28;20025;-72
2023/08/28 05:32:11;;;;;;;27.30;21.77;;;;;;;11.48;100.00;101059.22;5028766;28;20065;-71
2023/08/28 05:34:37;;;;;;;26.55;21.42;;;;;;;11.52;100.00;101063.84;5022463;28;20092;-72
2023/08/28 05:37:02;;;;;;;27.80;21.73;;;;;;;11.59;100.00;101068.97;5012437;28;20809;-71
2023/08/28 05:39:28;;;;;;;26.83;21.95;;;;;;;11.65;100.00;101073.28;5013385;28;20033;-72
2023/08/28 05:41:53;;;;;;;27.85;22.80;;;;;;;11.67;100.00;101070.19;5013599;28;20056;-71
2023/08/28 05:44:18;;;;;;;26.80;22.23;;;;;;;11.71;100.00;101066.47;5013578;28;20501;-72
2023/08/28 05:46:44;;;;;;;28.33;23.15;;;;;;;11.78;100.00;101068.03;5013508;28;20076;-70
2023/08/28 05:49:09;;;;;;;26.83;22.48;;;;;;;11.86;100.00;101070.88;5016094;28;20113;-70
2023/08/28 05:51:34;;;;;;;28.10;22.80;;;;;;;11.92;100.00;101059.72;5019727;28;20133;-71
2023/08/28 05:54:00;;;;;;;28.15;21.92;;;;;;;12.05;100.00;101072.75;5013175;28;20376;-71
2023/08/28 05:56:25;;;;;;;27.00;21.77;;;;;;;12.17;100.00;101077.78;5013577;28;20374;-71
2023/08/28 05:58:50;;;;;;;29.00;22.13;;;;;;;12.27;100.00;101080.34;5032990;28;20022;-74
2023/08/28 06:01:16;;;;;;;28.80;21.88;;;;;;;12.37;100.00;101076.50;5031377;28;20021;-72
2023/08/28 06:03:41;;;;;;;27.42;22.15;;;;;;;12.48;100.00;101074.28;5019186;28;20034;-70
2023/08/28 06:06:07;;;;;;;28.15;21.63;;;;;;;12.58;100.00;101068.50;5031958;28;20040;-69
2023/08/28 06:08:33;;;;;;;28.05;21.73;;;;;;;12.69;100.00;101069.09;5032454;28;20138;-70
2023/08/28 06:10:58;;;;;;;28.25;22.30;;;;;;;12.76;100.00;101069.47;5032384;28;20072;-70
2023/08/28 06:13:23;;;;;;;26.00;21.23;;;;;;;12.82;100.00;101061.00;5032573;28;20028;-70
2023/08/28 06:15:49;;;;;;;27.13;21.75;;;;;;;12.82;100.00;101072.09;5032289;28;20069;-69
2023/08/28 06:18:14;;;;;;;26.85;22.10;;;;;;;12.85;100.00;101065.91;5030797;28;20545;-70
2023/08/28 06:20:40;;;;;;;30.25;22.08;;;;;;;12.91;100.00;101065.47;5030441;28;20076;-70
2023/08/28 06:23:06;;;;;;;28.17;21.95;;;;;;;12.99;100.00;101065.84;5030254;28;20049;-70
2023/08/28 06:25:32;;;;;;;29.50;22.50;;;;;;;13.00;100.00;101056.38;5030329;28;20052;-69
2023/08/28 06:27:58;;;;;;;26.88;21.13;;;;;;;13.03;100.00;101064.09;5023623;28;20072;-70
2023/08/28 06:30:23;;;;;;;27.13;22.33;;;;;;;13.08;100.00;101075.06;5020813;28;20029;-70
2023/08/28 06:32:48;;;;;;;26.60;21.52;;;;;;;13.14;100.00;101073.75;5028896;28;20025;-70
2023/08/28 06:35:13;;;;;;;28.73;21.73;;;;;;;13.20;100.00;101068.91;5027651;28;20361;-70
2023/08/28 06:37:39;;;;;;;27.77;21.70;;;;;;;13.21;100.00;101068.59;5019545;28;20029;-69
2023/08/28 06:40:08;;;;;;;25.83;20.13;;;;;;;13.29;100.00;101069.75;5021703;28;20018;-69
2023/08/28 06:42:38;;;;;;;25.23;20.60;;;;;;;13.33;100.00;101070.78;5031063;28;20109;-70
2023/08/28 06:45:04;;;;;;;26.75;21.73;;;;;;;13.41;100.00;101070.03;5027820;28;20028;-69
2023/08/28 06:47:29;;;;;;;25.42;21.02;;;;;;;13.48;100.00;101065.97;5018571;28;20030;-70
2023/08/28 06:49:56;;;;;;;26.67;21.70;;;;;;;13.55;100.00;101069.91;5018107;28;20503;-69
2023/08/28 06:52:21;;;;;;;25.50;19.80;;;;;;;13.64;100.00;101074.69;5019662;28;20497;-69
2023/08/28 06:54:46;;;;;;;27.15;21.38;;;;;;;13.71;100.00;101080.59;5024856;28;20083;-69
2023/08/28 06:57:12;;;;;;;27.55;21.08;;;;;;;13.78;100.00;101091.25;5020145;28;20030;-70
2023/08/28 06:59:37;;;;;;;26.55;21.50;;;;;;;13.82;100.00;101086.69;5016680;28;20132;-69
2023/08/28 07:02:03;;;;;;;26.15;20.20;;;;;;;13.88;100.00;101094.59;5017392;28;20140;-69
2023/08/28 07:04:28;;;;;;;24.95;20.52;;;;;;;13.94;100.00;101095.22;5036463;28;20124;-71
2023/08/28 07:06:53;;;;;;;26.70;21.73;;;;;;;14.00;100.00;101099.50;5036880;28;20126;-69
2023/08/28 07:09:19;;;;;;;26.23;21.13;;;;;;;14.06;100.00;101096.56;5031924;28;20096;-70
2023/08/28 07:11:44;;;;;;;24.50;19.48;;;;;;;14.10;100.00;101109.50;5021900;28;20041;-68
2023/08/28 07:14:10;;;;;;;26.73;21.40;;;;;;;14.16;100.00;101112.97;5020300;28;20060;-69
2023/08/28 07:16:35;;;;;;;26.15;20.33;;;;;;;14.25;100.00;101112.97;5030550;28;20040;-69
2023/08/28 07:19:01;;;;;;;25.48;21.25;;;;;;;14.33;100.00;101103.81;5030409;28;20052;-70
2023/08/28 07:21:26;;;;;;;26.38;20.08;;;;;;;14.42;100.00;101101.03;5030079;28;20045;-70
2023/08/28 07:23:52;;;;;;;25.92;19.33;;;;;;;14.50;100.00;101103.00;5030109;28;20025;-70
2023/08/28 07:26:18;;;;;;;27.90;20.45;;;;;;;14.58;100.00;101104.16;5030226;28;20029;-69
2023/08/28 07:28:44;;;;;;;25.75;20.38;;;;;;;14.64;100.00;101106.47;5030341;28;20033;-69
2023/08/28 07:31:10;;;;;;;24.63;18.75;;;;;;;14.70;100.00;101104.38;5030641;28;20136;-70
2023/08/28 07:33:36;;;;;;;24.73;19.70;;;;;;;14.78;100.00;101108.31;5031510;28;20100;-70
2023/08/28 07:36:01;;;;;;;23.45;17.58;;;;;;;14.85;100.00;101097.47;5029062;28;20033;-69
2023/08/28 07:38:26;;;;;;;24.13;17.27;;;;;;;14.96;100.00;101090.44;5029883;28;20037;-68
2023/08/28 07:40:51;;;;;;;23.65;18.35;;;;;;;15.02;100.00;101093.03;5029942;28;20033;-68
2023/08/28 07:43:17;;;;;;;23.08;17.58;;;;;;;15.10;100.00;101095.81;5029373;28;20381;-69
2023/08/28 07:45:42;;;;;;;24.25;18.90;;;;;;;15.18;100.00;101087.75;5017846;28;20122;-69
2023/08/28 07:48:08;;;;;;;24.42;18.10;;;;;;;15.24;100.00;101097.56;5010065;28;20078;-70
2023/08/28 07:50:33;;;;;;;24.15;18.15;;;;;;;15.29;100.00;101091.81;5010082;28;20373;-69
2023/08/28 07:52:59;;;;;;;22.52;17.13;;;;;;;15.37;100.00;101095.72;5010146;28;20052;-69
2023/08/28 07:55:24;;;;;;;22.05;16.58;;;;;;;15.40;100.00;101097.84;5010081;28;20029;-70
2023/08/28 07:57:50;;;;;;;21.88;15.68;;;;;;;15.47;100.00;101089.78;5008598;28;20110;-69
2023/08/28 08:00:16;;;;;;;22.90;17.20;;;;;;;15.55;100.00;101093.69;5010715;28;20561;-69
2023/08/28 08:02:42;;;;;;;23.73;17.13;;;;;;;15.68;100.00;101092.63;5012617;28;20029;-68
2023/08/28 08:05:10;;;;;;;20.73;15.27;;;;;;;15.78;100.00;101093.41;5027339;28;20056;-68
2023/08/28 08:07:36;;;;;;;19.73;13.52;;;;;;;15.87;100.00;101097.84;5012599;28;20026;-69
2023/08/28 08:10:01;;;;;;;18.65;13.00;;;;;;;15.95;100.00;101098.13;5012459;28;20049;-70
2023/08/28 08:12:27;;;;;;;15.35;10.40;;;;;;;16.04;100.00;101101.69;5012963;28;20060;-68
2023/08/28 08:14:52;;;;;;;16.45;11.18;;;;;;;16.19;100.00;101103.06;5012588;28;20411;-70
2023/08/28 08:17:18;;;;;;;16.60;11.15;;;;;;;16.33;100.00;101103.66;5013403;28;20323;-70
2023/08/28 08:19:43;;;;;;;14.85;9.73;;;;;;;16.47;100.00;101102.53;5013789;28;20103;-70
2023/08/28 08:22:08;;;;;;;18.15;11.40;;;;;;;16.49;100.00;101103.03;5013800;28;20086;-70
2023/08/28 08:24:34;;;;;;;16.63;10.82;;;;;;;16.49;100.00;101101.03;5013556;28;20065;-69
2023/08/28 08:26:59;;;;;;;17.60;11.50;;;;;;;16.54;100.00;101105.59;5013604;28;20072;-70
2023/08/28 08:29:25;;;;;;;16.63;10.70;;;;;;;16.61;100.00;101102.28;5013805;28;20069;-69
2023/08/28 08:31:53;;;;;;;15.25;10.40;;;;;;;16.69;100.00;101104.16;5013702;28;20473;-69
2023/08/28 08:34:18;;;;;;;15.00;9.60;;;;;;;16.80;100.00;101108.19;5013267;28;20526;-69
2023/08/28 08:36:44;;;;;;;15.55;9.65;;;;;;;16.96;100.00;101110.38;5013690;28;20105;-69
2023/08/28 08:39:09;;;;;;;14.38;10.18;;;;;;;17.14;98.31;101094.25;5012052;28;20065;-69
2023/08/28 08:41:38;;;;;;;16.00;10.50;;;;;;;17.49;96.91;101105.03;5013518;28;20061;-69
2023/08/28 08:44:04;;;;;;;16.67;10.68;;;;;;;17.73;94.81;101114.63;5013282;28;20037;-69
2023/08/28 08:46:29;;;;;;;15.60;9.80;;;;;;;17.89;94.40;101107.16;5013155;28;20393;-69
2023/08/28 08:48:56;;;;;;;13.88;10.10;;;;;;;18.09;93.75;101110.22;5013089;28;20076;-69
2023/08/28 08:51:25;;;;;;;14.48;9.70;;;;;;;18.19;92.68;101106.94;5012749;28;20120;-69
2023/08/28 08:54:09;;;;;;;16.90;11.27;;;;;;;18.42;95.60;101112.03;5012925;28;20097;-69
2023/08/28 08:56:36;;;;;;;;;;;;;;;18.66;99.41;101105.53;5013184;28;20046;-69
2023/08/28 08:59:03;;;;;;;15.90;10.85;;;;;;;18.74;93.46;101112.19;5011281;28;19921;-69
2023/08/28 09:01:29;;;;;;;14.85;10.57;;;;;;;18.84;94.91;101106.06;5012921;28;20068;-69
2023/08/28 09:03:57;;;;;;;15.60;10.90;;;;;;;18.83;90.71;101109.22;5012700;28;20065;-70
2023/08/28 09:06:25;;;;;;;16.35;10.75;;;;;;;18.81;91.98;101108.78;5011489;28;20076;-69
2023/08/28 09:08:50;;;;;;;16.77;10.70;;;;;;;18.76;91.62;101107.03;5021616;28;20369;-69
2023/08/28 09:11:15;;;;;;;14.43;9.63;;;;;;;18.75;89.55;101104.59;5032089;28;20025;-69
2023/08/28 09:13:41;;;;;;;15.70;10.45;;;;;;;18.65;91.11;101098.34;5032346;28;20057;-70
2023/08/28 09:16:07;;;;;;;15.93;10.50;;;;;;;18.50;88.53;101108.28;5032378;28;20495;-69
2023/08/28 09:18:32;;;;;;;14.80;10.30;;;;;;;18.42;90.30;101106.41;5023535;28;20093;-68
2023/08/28 09:21:12;;;;;;;18.58;13.18;;;;;;;18.36;95.89;101110.66;5020646;28;20038;-69
2023/08/28 09:23:45;;;;;;;19.00;12.75;;;;;;;18.18;95.62;101101.72;5027002;28;20041;-69
2023/08/28 09:26:16;;;;;;;18.38;13.30;;;;;;;18.04;96.33;101108.47;5023166;28;20026;-69
2023/08/28 09:28:41;;;;;;;18.40;12.98;;;;;;;17.94;96.19;101097.72;5024302;28;20048;-68
2023/08/28 09:31:07;;;;;;;19.05;13.13;;;;;;;17.93;97.95;101101.69;5028488;28;20034;-69
2023/08/28 09:33:44;;;;;;;18.83;13.40;;;;;;;17.92;97.20;101097.25;5027521;28;20124;-68
2023/08/28 09:36:18;;;;;;;18.10;12.70;;;;;;;17.91;98.35;101099.25;5021833;28;20034;-69
2023/08/28 09:38:43;;;;;;;;;;;;;;;18.01;98.73;101102.78;5018442;28;20704;-69
2023/08/28 09:41:12;;;;;;;20.42;13.77;;;;;;;17.94;99.22;101108.91;5021061;28;20032;-69
2023/08/28 09:43:37;;;;;;;21.20;14.82;;;;;;;17.98;100.00;101103.47;5012702;28;20026;-69
2023/08/28 09:46:06;;;;;;;19.80;14.27;;;;;;;17.98;100.00;101100.66;5021974;28;20041;-69
2023/08/28 09:48:32;;;;;;;19.00;14.07;;;;;;;18.05;100.00;101112.91;5014791;28;20066;-69
2023/08/28 09:51:04;;;;;;;20.20;14.95;;;;;;;18.16;100.00;101104.03;5018330;28;20484;-69
2023/08/28 09:53:30;;;;;;;20.85;13.90;;;;;;;18.19;100.00;101106.94;5031397;28;20033;-68
2023/08/28 09:55:57;;;;;;;20.17;13.38;;;;;;;18.18;100.00;101115.72;5022850;28;20367;-69
2023/08/28 09:58:27;;;;;;;18.90;13.00;;;;;;;18.17;100.00;101112.06;5011706;28;20034;-69
2023/08/28 10:00:57;;;;;;;18.50;12.52;;;;;;;18.22;100.00;101119.41;5012387;28;20034;-68
2023/08/28 10:03:23;;;;;;;19.02;12.65;;;;;;;18.34;99.24;101118.56;5026259;28;20045;-69
2023/08/28 10:05:51;;;;;;;18.65;12.63;;;;;;;18.43;97.49;101112.84;5023784;28;20029;-69
2023/08/28 10:08:17;;;;;;;18.98;12.40;;;;;;;18.54;96.98;101117.59;5023947;28;20540;-69
2023/08/28 10:10:47;;;;;;;18.85;12.10;;;;;;;18.63;98.86;101119.44;5031338;28;20064;-70
2023/08/28 10:13:19;;;;;;;18.35;12.45;;;;;;;18.68;94.97;101125.63;5025484;28;20026;-68
2023/08/28 10:16:00;;;;;;;17.85;11.88;;;;;;;18.69;94.58;101120.84;5023803;28;20037;-70
2023/08/28 10:18:34;;;;;;;17.50;11.55;;;;;;;18.67;92.30;101126.78;5012401;28;20044;-69
2023/08/28 10:21:00;;;;;;;18.20;11.65;;;;;;;18.65;89.80;101131.94;5012300;28;20463;-69
2023/08/28 10:23:27;;;;;;;17.30;11.13;;;;;;;18.78;90.56;101129.09;5012740;28;20026;-69
2023/08/28 10:25:54;;;;;;;16.60;11.38;;;;;;;18.85;92.09;101120.88;5020072;28;20029;-69
2023/08/28 10:28:20;;;;;;;17.35;11.68;;;;;;;18.88;90.58;101125.78;5011105;28;20078;-68
2023/08/28 10:30:48;;;;;;;17.75;11.95;;;;;;;18.87;86.75;101126.94;5020225;28;20030;-68
2023/08/28 10:33:14;;;;;;;17.27;12.05;;;;;;;18.92;87.31;101121.09;5028702;28;20397;-68
2023/08/28 10:35:41;;;;;;;17.50;11.70;;;;;;;18.94;90.08;101115.97;5026658;28;20028;-68
2023/08/28 10:38:07;;;;;;;16.80;11.82;;;;;;;18.96;89.14;101127.66;5012301;28;20464;-68
2023/08/28 10:40:34;;;;;;;17.17;11.10;;;;;;;19.01;89.51;101123.78;5027432;28;20422;-67
2023/08/28 10:43:00;;;;;;;17.73;11.73;;;;;;;18.96;86.67;101115.63;5026572;28;20156;-69
2023/08/28 10:45:26;;;;;;;16.40;11.57;;;;;;;19.01;88.62;101126.56;5016743;28;20105;-68
2023/08/28 10:47:51;;;;;;;16.73;11.15;;;;;;;19.04;88.12;101120.25;5022812;28;20045;-68
2023/08/28 10:50:17;;;;;;;19.17;11.85;;;;;;;19.00;87.27;101120.16;5012223;28;20044;-69
2023/08/28 10:52:45;;;;;;;16.77;11.48;;;;;;;18.98;86.54;101111.28;5024371;28;20056;-68
2023/08/28 10:55:10;;;;;;;16.10;11.25;;;;;;;19.10;86.08;101118.81;5021862;28;20049;-68
2023/08/28 10:57:40;;;;;;;16.50;11.32;;;;;;;19.22;85.48;101117.97;5018031;28;20030;-69
2023/08/28 11:00:20;;;;;;;17.38;11.07;;;;;;;19.30;85.49;101116.97;5026320;28;20026;-69
2023/08/28 11:03:10;;;;;;;15.90;10.70;;;;;;;19.24;85.14;101117.59;5030623;28;20669;-67